| time (UTC) | temp F | wind direction | speed MPH | gust MPH | rain 1hr in | rain 24hr in | rain mn in | humidity % | barometer mb |
| 20260507112316 | 49 | 293 | 4.0 | 7.0 | 0.00 | 1.17 | 0.06 | 89 | 1015.8 |
| 20260507111338 | 49 | 315 | 7.0 | 11.0 | 0.00 | 1.17 | 0.06 | 89 | 1015.9 |
| 20260507110316 | 49 | 248 | 4.0 | 6.0 | 0.00 | 1.17 | 0.06 | 91 | 1015.9 |
| 20260507105316 | 48 | 293 | 6.0 | 8.0 | 0.00 | 1.17 | 0.06 | 93 | 1016.0 |
| 20260507104316 | 47 | 293 | 4.0 | 6.0 | 0.00 | 1.17 | 0.06 | 93 | 1016.0 |
| 20260507103316 | 47 | 270 | 6.0 | 9.0 | 0.00 | 1.17 | 0.06 | 93 | 1016.1 |
| 20260507102336 | 46 | 248 | 5.0 | 7.0 | 0.00 | 1.17 | 0.06 | 93 | 1016.0 |
| 20260507101316 | 46 | 270 | 5.0 | 7.0 | 0.01 | 1.17 | 0.06 | 93 | 1015.9 |
| 20260507100336 | 47 | 225 | 4.0 | 7.0 | 0.01 | 1.17 | 0.06 | 93 | 1015.9 |
| 20260507095316 | 46 | 293 | 4.0 | 6.0 | 0.01 | 1.17 | 0.06 | 93 | 1015.7 |
| 20260507094316 | 47 | 293 | 7.0 | 10.0 | 0.01 | 1.17 | 0.06 | 93 | 1015.5 |
| 20260507093316 | 47 | 225 | 5.0 | 9.0 | 0.01 | 1.17 | 0.06 | 94 | 1015.4 |
| 20260507092316 | 47 | 293 | 4.0 | 6.0 | 0.02 | 1.17 | 0.06 | 94 | 1015.3 |
| 20260507091316 | 47 | 293 | 8.0 | 11.0 | 0.02 | 1.16 | 0.05 | 94 | 1015.3 |
| 20260507090316 | 47 | 293 | 4.0 | 7.0 | 0.02 | 1.16 | 0.05 | 94 | 1015.1 |
| 20260507085316 | 47 | 293 | 3.0 | 8.0 | 0.02 | 1.16 | 0.05 | 95 | 1015.0 |
| 20260507084336 | 47 | 270 | 4.0 | 9.0 | 0.02 | 1.16 | 0.05 | 95 | 1014.9 |
| 20260507083316 | 46 | 293 | 6.0 | 9.0 | 0.02 | 1.16 | 0.05 | 95 | 1014.8 |
| 20260507082316 | 46 | 270 | 5.0 | 9.0 | 0.02 | 1.15 | 0.04 | 95 | 1014.7 |
| 20260507081336 | 47 | 225 | 5.0 | 9.0 | 0.02 | 1.14 | 0.03 | 95 | 1014.6 |
| 20260507080316 | 46 | 270 | 4.0 | 6.0 | 0.02 | 1.14 | 0.03 | 95 | 1014.4 |
| 20260507075316 | 46 | 293 | 6.0 | 10.0 | 0.02 | 1.14 | 0.03 | 95 | 1014.3 |
| 20260507074316 | 45 | 293 | 7.0 | 10.0 | 0.02 | 1.14 | 0.03 | 95 | 1014.2 |
| 20260507073416 | 45 | 293 | 8.0 | 13.0 | 0.02 | 1.13 | 0.02 | 95 | 1014.0 |
| 20260507072316 | 46 | 225 | 5.0 | 9.0 | 0.01 | 1.13 | 0.02 | 95 | 1013.9 |
| 20260507071316 | 46 | 248 | 4.0 | 7.0 | 0.01 | 1.13 | 0.02 | 95 | 1013.7 |
| 20260507070316 | 46 | 248 | 5.0 | 8.0 | 0.01 | 1.13 | 0.02 | 95 | 1013.8 |
| 20260507065336 | 45 | 248 | 6.0 | 10.0 | 0.00 | 1.12 | 0.01 | 95 | 1013.7 |
| 20260507064336 | 45 | 248 | 4.0 | 8.0 | 0.00 | 1.12 | 0.01 | 95 | 1013.6 |
| 20260507063315 | 45 | 225 | 5.0 | 7.0 | 0.01 | 1.12 | 0.01 | 95 | 1013.5 |
| 20260507062316 | 45 | 248 | 5.0 | 9.0 | 0.01 | 1.12 | 0.01 | 95 | 1013.5 |
| 20260507061315 | 45 | 270 | 7.0 | 10.0 | 0.01 | 1.12 | 0.01 | 95 | 1013.3 |
| 20260507060315 | 45 | 248 | 4.0 | 8.0 | 0.01 | 1.12 | 0.01 | 95 | 1013.2 |
| 20260507055316 | 45 | 225 | 5.0 | 8.0 | 0.01 | 1.12 | 0.01 | 95 | 1013.1 |
| 20260507054316 | 45 | 270 | 4.0 | 7.0 | 0.01 | 1.12 | 0.01 | 95 | 1013.0 |
| 20260507053315 | 45 | 225 | 5.0 | 7.0 | 0.00 | 1.11 | 0.00 | 95 | 1013.0 |
| 20260507052316 | 45 | 270 | 5.0 | 10.0 | 0.00 | 1.11 | 0.00 | 95 | 1012.8 |
| 20260507051315 | 45 | 225 | 7.0 | 9.0 | 0.00 | 1.11 | 0.00 | 95 | 1012.8 |
| 20260507050315 | 45 | 248 | 5.0 | 8.0 | 0.00 | 1.11 | 0.00 | 95 | 1012.7 |
| 20260507045335 | 45 | 248 | 6.0 | 10.0 | 0.00 | 1.11 | 0.00 | 95 | 1012.6 |
| 20260507044316 | 45 | 225 | 6.0 | 10.0 | 0.00 | 1.11 | 0.00 | 95 | 1012.5 |
| 20260507043316 | 45 | 248 | 9.0 | 11.0 | 0.00 | 1.11 | 0.00 | 95 | 1012.3 |
| 20260507042335 | 44 | 248 | 5.0 | 9.0 | 0.00 | 1.11 | 0.00 | 95 | 1012.2 |
| 20260507041315 | 44 | 225 | 4.0 | 5.0 | 0.00 | 1.11 | 0.00 | 95 | 1012.1 |
| 20260507040315 | 44 | 203 | 4.0 | 5.0 | 0.00 | 1.11 | 0.00 | 95 | 1012.0 |
| 20260507035336 | 44 | 225 | 2.0 | 3.0 | 0.00 | 1.11 | 0.00 | 95 | 1011.9 |
| 20260507034315 | 44 | 203 | 3.0 | 4.0 | 0.00 | 1.11 | 0.00 | 95 | 1011.8 |
| 20260507033315 | 44 | 203 | 4.0 | 5.0 | 0.00 | 1.11 | 0.00 | 95 | 1011.8 |
| 20260507032335 | 44 | 203 | 3.0 | 5.0 | 0.00 | 1.11 | 0.00 | 95 | 1011.6 |
| 20260507031315 | 44 | 248 | 3.0 | 4.0 | 0.00 | 1.11 | 0.00 | 95 | 1011.7 |
| 20260507030335 | 44 | 225 | 5.0 | 6.0 | 0.00 | 1.11 | 0.00 | 95 | 1011.6 |
| 20260507025315 | 44 | 203 | 4.0 | 5.0 | 0.00 | 1.12 | 0.00 | 95 | 1011.6 |
| 20260507024315 | 44 | 248 | 3.0 | 5.0 | 0.00 | 1.12 | 0.00 | 95 | 1011.5 |
| 20260507023335 | 44 | 203 | 4.0 | 5.0 | 0.00 | 1.12 | 0.00 | 95 | 1011.4 |
| 20260507022315 | 44 | 225 | 4.0 | 5.0 | 0.00 | 1.12 | 0.00 | 95 | 1011.6 |
| 20260507021315 | 44 | 203 | 3.0 | 4.0 | 0.00 | 1.12 | 0.00 | 95 | 1011.5 |
| 20260507020315 | 44 | 225 | 3.0 | 4.0 | 0.00 | 1.12 | 0.00 | 95 | 1011.5 |
| 20260507015315 | 44 | 203 | 3.0 | 4.0 | 0.00 | 1.12 | 0.00 | 95 | 1011.4 |
| 20260507014317 | 44 | 203 | 2.0 | 3.0 | 0.00 | 1.12 | 0.00 | 95 | 1011.4 |
| 20260507013317 | 44 | 225 | 2.0 | 3.0 | 0.00 | 1.12 | 0.00 | 95 | 1011.3 |
| 20260507012317 | 44 | 225 | 2.0 | 3.0 | 0.00 | 1.12 | 0.00 | 95 | 1011.3 |
| 20260507011317 | 43 | 203 | 3.0 | 4.0 | 0.00 | 1.12 | 0.00 | 94 | 1011.2 |
| 20260507010317 | 44 | 203 | 3.0 | 4.0 | 0.00 | 1.12 | 0.00 | 94 | 1011.1 |
| 20260507005317 | 44 | 225 | 4.0 | 7.0 | 0.00 | 1.12 | 0.00 | 95 | 1011.2 |
| 20260507004337 | 44 | 270 | 2.0 | 4.0 | 0.00 | 1.12 | 0.00 | 94 | 1011.0 |
| 20260507003317 | 44 | 225 | 4.0 | 6.0 | 0.00 | 1.12 | 0.00 | 94 | 1011.1 |
| 20260507002317 | 44 | 225 | 5.0 | 7.0 | 0.00 | 1.12 | 0.00 | 94 | 1011.1 |
| 20260507001317 | 44 | 248 | 7.0 | 11.0 | 0.00 | 1.12 | 0.00 | 94 | 1011.0 |
| 20260507000317 | 44 | 248 | 8.0 | 10.0 | 0.00 | 1.12 | 0.00 | 94 | 1011.2 |
| 20260506235315 | 45 | 225 | 7.0 | 10.0 | 0.00 | 1.12 | 0.00 | 94 | 1011.3 |
| 20260506234317 | 45 | 248 | 8.0 | 12.0 | 0.00 | 1.12 | 0.00 | 95 | 1011.3 |
| 20260506233317 | 45 | 248 | 8.0 | 12.0 | 0.00 | 1.12 | 0.00 | 95 | 1011.3 |
| 20260506232317 | 45 | 225 | 6.0 | 8.0 | 0.00 | 1.12 | 0.00 | 95 | 1011.3 |
| 20260506231317 | 46 | 270 | 5.0 | 9.0 | 0.00 | 1.12 | 0.00 | 95 | 1011.3 |
| 20260506230317 | 46 | 248 | 4.0 | 7.0 | 0.00 | 1.12 | 0.00 | 95 | 1011.3 |
| 20260506225317 | 46 | 270 | 2.0 | 3.0 | 0.00 | 1.12 | 0.00 | 95 | 1011.2 |
| 20260506224317 | 46 | 248 | 4.0 | 7.0 | 0.00 | 1.12 | 0.00 | 95 | 1011.3 |
| 20260506223317 | 47 | 248 | 3.0 | 5.0 | 0.00 | 1.12 | 0.00 | 95 | 1011.2 |
| 20260506222317 | 47 | 225 | 6.0 | 9.0 | 0.00 | 1.12 | 0.00 | 95 | 1011.1 |
| 20260506221337 | 47 | 248 | 5.0 | 8.0 | 0.00 | 1.12 | 0.00 | 95 | 1011.0 |
| 20260506220317 | 47 | 270 | 3.0 | 5.0 | 0.00 | 1.12 | 0.00 | 95 | 1011.0 |
| 20260506215316 | 47 | 225 | 4.0 | 7.0 | 0.00 | 1.12 | 1.12 | 95 | 1010.9 |
| 20260506214315 | 47 | 248 | 4.0 | 6.0 | 0.00 | 1.12 | 1.12 | 95 | 1010.8 |
| 20260506213316 | 47 | 225 | 4.0 | 6.0 | 0.00 | 1.12 | 1.12 | 95 | 1010.8 |
| 20260506212315 | 47 | 225 | 4.0 | 6.0 | 0.00 | 1.12 | 1.12 | 95 | 1010.7 |
| 20260506211335 | 47 | 225 | 4.0 | 7.0 | 0.00 | 1.12 | 1.12 | 95 | 1010.6 |
| 20260506210316 | 47 | 225 | 5.0 | 7.0 | 0.00 | 1.12 | 1.12 | 95 | 1010.5 |
| 20260506205315 | 47 | 248 | 5.0 | 8.0 | 0.00 | 1.12 | 1.12 | 95 | 1010.4 |
| 20260506204316 | 47 | 248 | 5.0 | 6.0 | 0.00 | 1.12 | 1.12 | 94 | 1010.5 |
| 20260506203316 | 47 | 225 | 5.0 | 6.0 | 0.00 | 1.12 | 1.12 | 94 | 1010.5 |
| 20260506202336 | 48 | 203 | 4.0 | 6.0 | 0.00 | 1.12 | 1.12 | 95 | 1010.5 |
| 20260506201315 | 48 | 225 | 3.0 | 6.0 | 0.00 | 1.12 | 1.12 | 95 | 1010.4 |
| 20260506200315 | 48 | 225 | 2.0 | 3.0 | 0.00 | 1.12 | 1.12 | 94 | 1010.2 |
| 20260506195316 | 48 | 225 | 5.0 | 8.0 | 0.00 | 1.13 | 1.12 | 94 | 1010.3 |
| 20260506194316 | 48 | 225 | 4.0 | 6.0 | 0.00 | 1.13 | 1.12 | 94 | 1010.1 |
| 20260506193315 | 48 | 248 | 3.0 | 5.0 | 0.00 | 1.13 | 1.12 | 94 | 1010.0 |
| 20260506192315 | 48 | 248 | 5.0 | 6.0 | 0.00 | 1.13 | 1.12 | 94 | 1009.9 |
| 20260506191335 | 48 | 270 | 4.0 | 7.0 | 0.00 | 1.13 | 1.12 | 94 | 1009.9 |
| 20260506190315 | 49 | 248 | 6.0 | 10.0 | 0.00 | 1.13 | 1.12 | 94 | 1009.7 |
| 20260506185315 | 49 | 225 | 4.0 | 7.0 | 0.00 | 1.13 | 1.12 | 94 | 1009.5 |
| 20260506184315 | 49 | 248 | 5.0 | 7.0 | 0.01 | 1.13 | 1.12 | 94 | 1009.5 |
| 20260506183315 | 49 | 248 | 5.0 | 7.0 | 0.01 | 1.13 | 1.12 | 94 | 1009.3 |
| 20260506182315 | 50 | 248 | 4.0 | 5.0 | 0.03 | 1.13 | 1.12 | 94 | 1009.2 |
| 20260506181315 | 49 | 225 | 3.0 | 4.0 | 0.07 | 1.13 | 1.12 | 94 | 1009.1 |
| 20260506180335 | 49 | 293 | 3.0 | 4.0 | 0.13 | 1.13 | 1.12 | 94 | 1008.9 |
| 20260506175315 | 49 | 293 | 3.0 | 5.0 | 0.19 | 1.13 | 1.12 | 93 | 1008.9 |
| 20260506174315 | 49 | 293 | 4.0 | 6.0 | 0.25 | 1.12 | 1.11 | 93 | 1008.6 |
| 20260506173315 | 49 | 315 | 5.0 | 8.0 | 0.24 | 1.11 | 1.11 | 93 | 1008.4 |
| 20260506172317 | 50 | 293 | 7.0 | 9.0 | 0.23 | 1.09 | 1.09 | 93 | 1008.4 |
| 20260506171338 | 50 | 293 | 3.0 | 6.0 | 0.19 | 1.06 | 1.05 | 93 | 1008.4 |
| 20260506170317 | 50 | 315 | 7.0 | 11.0 | 0.13 | 1.00 | 0.99 | 93 | 1008.4 |
| 20260506165317 | 50 | 248 | 5.0 | 9.0 | 0.07 | 0.94 | 0.93 | 92 | 1008.5 |
| 20260506164317 | 50 | 293 | 6.0 | 9.0 | 0.01 | 0.87 | 0.86 | 92 | 1008.3 |
| 20260506163317 | 51 | 315 | 8.0 | 12.0 | 0.05 | 0.87 | 0.86 | 92 | 1008.3 |
| 20260506162317 | 51 | 315 | 8.0 | 11.0 | 0.12 | 0.87 | 0.86 | 92 | 1008.0 |
| 20260506161317 | 51 | 315 | 5.0 | 8.0 | 0.45 | 0.87 | 0.86 | 91 | 1007.9 |
| 20260506160317 | 51 | 293 | 5.0 | 9.0 | 0.82 | 0.87 | 0.86 | 91 | 1008.0 |
| 20260506155457 | 51 | 315 | 6.0 | 9.0 | 0.85 | 0.87 | 0.86 | 91 | 1007.9 |
| 20260506154317 | 51 | 315 | 4.0 | 8.0 | 0.84 | 0.86 | 0.85 | 89 | 1007.8 |
| 20260506153317 | 52 | 315 | 4.0 | 5.0 | 0.80 | 0.82 | 0.81 | 88 | 1008.0 |
| 20260506152317 | 53 | 0 | 3.0 | 4.0 | 0.73 | 0.75 | 0.74 | 86 | 1007.8 |
| 20260506151317 | 55 | 68 | 3.0 | 4.0 | 0.40 | 0.42 | 0.41 | 83 | 1007.5 |
| 20260506150317 | 58 | 113 | 1.0 | 3.0 | 0.03 | 0.05 | 0.04 | 79 | 1007.2 |
| 20260506145317 | 59 | 315 | 3.0 | 8.0 | 0.00 | 0.02 | 0.01 | 77 | 1006.8 |
| 20260506144317 | 60 | 315 | 3.0 | 4.0 | 0.00 | 0.02 | 0.01 | 76 | 1006.8 |
| 20260506142317 | 60 | 0.0 | 0.0 | 0.00 | 0.02 | 0.01 | 76 | 1007.1 | |
| 20260506141317 | 60 | 338 | 1.0 | 3.0 | 0.00 | 0.02 | 0.01 | 75 | 1007.0 |
| 20260506140357 | 61 | 315 | 2.0 | 4.0 | 0.00 | 0.02 | 0.01 | 73 | 1007.0 |
| 20260506135317 | 62 | 45 | 2.0 | 2.0 | 0.00 | 0.10 | 0.01 | 72 | 1007.0 |
| 20260506134317 | 62 | 248 | 2.0 | 3.0 | 0.00 | 0.10 | 0.01 | 72 | 1007.1 |
| 20260506133317 | 63 | 248 | 2.0 | 4.0 | 0.00 | 0.10 | 0.01 | 71 | 1007.0 |
| 20260506132317 | 63 | 293 | 4.0 | 6.0 | 0.00 | 0.10 | 0.01 | 72 | 1007.1 |
| 20260506131336 | 61 | 315 | 2.0 | 3.0 | 0.00 | 0.10 | 0.01 | 74 | 1007.1 |
| 20260506130316 | 61 | 270 | 2.0 | 6.0 | 0.00 | 0.10 | 0.01 | 75 | 1007.2 |
| 20260506125316 | 61 | 293 | 3.0 | 4.0 | 0.00 | 0.10 | 0.01 | 75 | 1007.3 |
| 20260506124316 | 60 | 248 | 1.0 | 3.0 | 0.00 | 0.10 | 0.01 | 76 | 1007.2 |
| 20260506123317 | 60 | 270 | 1.0 | 3.0 | 0.00 | 0.10 | 0.01 | 76 | 1007.3 |
| 20260506122317 | 60 | 315 | 1.0 | 3.0 | 0.00 | 0.10 | 0.01 | 75 | 1007.3 |
| 20260506121337 | 60 | 0.0 | 0.0 | 0.00 | 0.10 | 0.01 | 75 | 1007.3 | |
| 20260506120316 | 60 | 338 | 1.0 | 2.0 | 0.00 | 0.10 | 0.01 | 77 | 1007.2 |
| 20260506115316 | 60 | 248 | 1.0 | 2.0 | 0.00 | 0.10 | 0.01 | 74 | 1007.3 |
| 20260506114316 | 60 | 0.0 | 0.0 | 0.00 | 0.10 | 0.01 | 75 | 1007.3 | |
| 20260506113316 | 60 | 0.0 | 0.0 | 0.00 | 0.10 | 0.01 | 75 | 1007.3 |